createdAt,value
2019-01-29T00:00:37.132Z,33.70
2019-01-29T00:03:03.117Z,33.60
2019-01-29T00:05:29.143Z,33.70
2019-01-29T00:07:55.097Z,33.70
2019-01-29T00:10:21.040Z,33.70
2019-01-29T00:12:47.000Z,33.70
2019-01-29T00:15:12.934Z,33.70
2019-01-29T00:17:38.882Z,33.70
2019-01-29T00:20:04.816Z,33.70
2019-01-29T00:22:33.548Z,33.80
2019-01-29T00:24:58.633Z,33.90
2019-01-29T00:27:24.590Z,33.80
2019-01-29T00:29:50.533Z,33.80
2019-01-29T00:32:16.475Z,33.80
2019-01-29T00:34:43.174Z,33.70
2019-01-29T00:37:09.220Z,33.80
2019-01-29T00:39:35.388Z,33.70
2019-01-29T00:42:01.426Z,33.80
2019-01-29T00:44:28.077Z,33.80
2019-01-29T00:46:54.113Z,33.80
2019-01-29T00:49:20.073Z,33.80
2019-01-29T00:51:46.039Z,33.80
2019-01-29T00:54:11.984Z,33.80
2019-01-29T00:56:37.922Z,33.80
2019-01-29T00:59:03.847Z,33.80
2019-01-29T01:01:29.813Z,33.70
2019-01-29T01:03:55.766Z,34.20
2019-01-29T01:06:21.709Z,33.80
2019-01-29T01:08:47.756Z,33.80
2019-01-29T01:11:13.700Z,33.80
2019-01-29T01:13:39.642Z,33.80
2019-01-29T01:16:05.606Z,33.80
2019-01-29T01:18:31.555Z,33.80
2019-01-29T01:20:57.499Z,33.80
2019-01-29T01:23:23.462Z,33.80
2019-01-29T01:25:49.427Z,33.80
2019-01-29T01:28:15.470Z,33.80
2019-01-29T01:30:41.410Z,33.80
2019-01-29T01:33:07.367Z,33.70
2019-01-29T01:35:33.305Z,33.70
2019-01-29T01:37:59.267Z,33.70
2019-01-29T01:40:25.206Z,33.70
2019-01-29T01:42:51.139Z,33.80
2019-01-29T01:45:17.123Z,33.70
2019-01-29T01:47:43.099Z,33.80
2019-01-29T01:50:09.153Z,33.70
2019-01-29T01:52:35.097Z,33.80
2019-01-29T01:55:01.061Z,33.70
2019-01-29T01:57:27.021Z,33.80
2019-01-29T01:59:52.998Z,33.80
2019-01-29T02:02:18.951Z,33.80
2019-01-29T02:04:44.947Z,33.90
2019-01-29T02:07:10.991Z,33.80
2019-01-29T02:09:36.933Z,33.70
2019-01-29T02:12:02.869Z,33.80
2019-01-29T02:14:28.803Z,33.80
2019-01-29T02:16:54.749Z,33.90
2019-01-29T02:19:20.718Z,33.80
2019-01-29T02:21:46.659Z,33.80
2019-01-29T02:24:12.624Z,33.80
2019-01-29T02:26:38.583Z,33.80
2019-01-29T02:29:04.556Z,33.90
2019-01-29T02:31:30.629Z,33.80
2019-01-29T02:33:56.699Z,33.90
2019-01-29T02:36:22.626Z,33.80
2019-01-29T02:38:48.596Z,33.80
2019-01-29T02:41:14.525Z,33.80
2019-01-29T02:43:40.485Z,33.80
2019-01-29T02:46:06.444Z,33.90
2019-01-29T02:48:32.424Z,33.80
2019-01-29T02:50:58.470Z,33.80
2019-01-29T02:53:24.433Z,33.80
2019-01-29T02:55:50.369Z,33.80
2019-01-29T02:58:16.322Z,33.80
2019-01-29T03:00:42.253Z,33.90
2019-01-29T03:03:08.198Z,33.70
2019-01-29T03:05:34.168Z,33.80
2019-01-29T03:08:00.110Z,33.80
2019-01-29T03:10:26.060Z,33.80
2019-01-29T03:12:52.010Z,33.70
2019-01-29T03:15:17.975Z,33.70
2019-01-29T03:17:44.010Z,33.80
2019-01-29T03:20:09.933Z,33.70
2019-01-29T03:22:35.891Z,33.70
2019-01-29T03:25:01.829Z,33.70
2019-01-29T03:27:27.876Z,33.80
2019-01-29T03:29:53.836Z,33.80
2019-01-29T03:32:19.763Z,33.80
2019-01-29T03:34:45.720Z,33.70
2019-01-29T03:37:11.672Z,33.80
2019-01-29T03:39:37.829Z,33.70
2019-01-29T03:42:03.764Z,33.80
2019-01-29T03:44:29.705Z,33.70
2019-01-29T03:46:55.637Z,33.70
2019-01-29T03:49:21.618Z,33.70
2019-01-29T03:51:47.567Z,33.80
2019-01-29T03:54:13.538Z,33.70
2019-01-29T03:56:39.486Z,33.80
2019-01-29T03:59:05.453Z,33.80
2019-01-29T04:01:31.489Z,33.90
2019-01-29T04:03:57.431Z,33.80
2019-01-29T04:06:23.400Z,33.90
2019-01-29T04:08:49.330Z,34.30
2019-01-29T04:11:15.274Z,34.50
2019-01-29T04:13:41.230Z,33.80
2019-01-29T04:16:07.196Z,34.40
2019-01-29T04:18:33.149Z,33.80
2019-01-29T04:20:59.097Z,33.80
2019-01-29T04:23:25.049Z,33.80
2019-01-29T04:25:51.036Z,33.80
2019-01-29T04:28:16.984Z,33.90
2019-01-29T04:30:42.955Z,33.90
2019-01-29T04:33:08.918Z,33.90
2019-01-29T04:35:34.879Z,33.90
2019-01-29T04:38:00.835Z,33.90
2019-01-29T04:40:26.794Z,33.90
2019-01-29T04:42:52.770Z,33.90
2019-01-29T04:45:18.706Z,33.90
2019-01-29T04:47:44.677Z,33.90
2019-01-29T04:50:10.635Z,33.90
2019-01-29T04:52:36.607Z,33.90
2019-01-29T04:55:02.548Z,33.90
2019-01-29T04:57:28.507Z,33.90
2019-01-29T04:59:54.432Z,33.90
2019-01-29T05:02:20.398Z,33.90
2019-01-29T05:04:47.067Z,33.90
2019-01-29T05:07:13.167Z,33.00
2019-01-29T05:09:39.139Z,33.80
2019-01-29T05:12:05.118Z,33.90
2019-01-29T05:14:31.179Z,33.90
2019-01-29T05:16:57.133Z,33.90
2019-01-29T05:19:23.081Z,33.90
2019-01-29T05:21:49.147Z,33.90
2019-01-29T05:24:15.271Z,33.90
2019-01-29T05:26:41.212Z,33.90
2019-01-29T05:29:07.159Z,33.90
2019-01-29T05:31:33.292Z,33.90
2019-01-29T05:33:59.230Z,33.90
2019-01-29T05:36:25.188Z,33.90
2019-01-29T05:38:51.130Z,34.00
2019-01-29T05:41:17.098Z,34.00
2019-01-29T05:43:43.054Z,33.90
2019-01-29T05:46:08.990Z,34.00
2019-01-29T05:48:34.947Z,34.00
2019-01-29T05:51:00.891Z,34.00
2019-01-29T05:53:26.857Z,34.00
2019-01-29T05:55:52.827Z,34.00
2019-01-29T05:58:18.765Z,34.00
2019-01-29T06:00:44.732Z,34.00
2019-01-29T06:03:10.782Z,34.10
2019-01-29T06:05:36.720Z,34.70
2019-01-29T06:08:02.652Z,34.30
2019-01-29T06:10:28.624Z,34.50
2019-01-29T06:12:54.574Z,34.50
2019-01-29T06:15:20.525Z,34.40
2019-01-29T06:17:46.589Z,34.50
2019-01-29T06:20:12.557Z,34.60
2019-01-29T06:22:38.534Z,34.50
2019-01-29T06:25:04.578Z,34.70
2019-01-29T06:27:30.612Z,34.80
2019-01-29T06:29:56.581Z,35.00
2019-01-29T06:32:22.523Z,35.10
2019-01-29T06:34:48.583Z,35.40
2019-01-29T06:37:14.545Z,34.90
2019-01-29T06:39:40.495Z,35.40
2019-01-29T06:42:06.439Z,35.50
2019-01-29T06:44:32.392Z,35.40
2019-01-29T06:46:58.359Z,35.20
2019-01-29T06:49:24.317Z,35.00
2019-01-29T06:51:50.258Z,35.00
2019-01-29T06:54:16.408Z,34.90
2019-01-29T06:56:42.369Z,35.00
2019-01-29T06:59:08.301Z,34.90
2019-01-29T07:01:34.242Z,34.80
2019-01-29T07:04:00.196Z,34.80
2019-01-29T07:06:26.144Z,34.80
2019-01-29T07:08:52.069Z,34.80
2019-01-29T07:11:18.044Z,34.80
2019-01-29T07:13:44.079Z,34.80
2019-01-29T07:16:17.939Z,34.80
2019-01-29T07:18:45.800Z,34.90
2019-01-29T07:21:11.732Z,35.50
2019-01-29T07:23:37.703Z,34.70
2019-01-29T07:26:03.638Z,34.80
2019-01-29T07:28:29.586Z,34.80
2019-01-29T07:30:55.640Z,34.80
2019-01-29T07:33:21.742Z,34.80
2019-01-29T07:35:47.809Z,34.80
2019-01-29T07:38:13.869Z,34.80
2019-01-29T07:40:39.824Z,34.80
2019-01-29T07:43:05.758Z,34.80
2019-01-29T07:45:31.728Z,35.40
2019-01-29T07:47:57.680Z,34.70
2019-01-29T07:50:23.646Z,34.90
2019-01-29T07:52:49.697Z,34.80
2019-01-29T07:55:15.664Z,34.80
2019-01-29T07:57:41.682Z,34.80
2019-01-29T08:00:07.663Z,34.80
2019-01-29T08:02:33.611Z,34.80
2019-01-29T08:04:59.578Z,34.70
2019-01-29T08:07:25.518Z,34.80
2019-01-29T08:09:51.459Z,34.80
2019-01-29T08:12:17.403Z,34.70
2019-01-29T08:14:43.462Z,34.70
2019-01-29T08:17:09.398Z,34.60
2019-01-29T08:19:35.348Z,34.70
2019-01-29T08:22:01.302Z,35.30
2019-01-29T08:24:27.853Z,34.60
2019-01-29T08:26:53.936Z,34.60
2019-01-29T08:29:19.902Z,34.60
2019-01-29T08:31:45.880Z,34.60
2019-01-29T08:34:11.931Z,34.60
2019-01-29T08:36:37.904Z,34.60
2019-01-29T08:39:04.463Z,34.60
2019-01-29T08:41:30.522Z,34.60
2019-01-29T08:43:56.454Z,34.60
2019-01-29T08:46:23.402Z,34.60
2019-01-29T08:48:49.548Z,34.60
2019-01-29T08:51:15.611Z,34.60
2019-01-29T08:53:41.664Z,34.60
2019-01-29T08:56:07.720Z,34.60
2019-01-29T08:58:33.753Z,34.60
2019-01-29T09:00:59.701Z,34.60
2019-01-29T09:03:25.658Z,34.80
2019-01-29T09:05:51.624Z,34.80
2019-01-29T09:08:17.571Z,34.80
2019-01-29T09:10:43.542Z,34.70
2019-01-29T09:13:09.592Z,34.60
2019-01-29T09:15:35.551Z,34.60
2019-01-29T09:18:01.525Z,34.60
2019-01-29T09:20:27.467Z,34.60
2019-01-29T09:22:53.393Z,34.60
2019-01-29T09:25:22.421Z,34.60
2019-01-29T09:27:47.200Z,34.40
2019-01-29T09:30:13.164Z,34.50
2019-01-29T09:32:39.106Z,34.50
2019-01-29T09:35:05.595Z,34.40
2019-01-29T09:37:31.616Z,34.40
2019-01-29T09:39:57.585Z,34.30
2019-01-29T09:42:25.153Z,34.30
2019-01-29T09:44:51.289Z,34.20
2019-01-29T09:47:17.232Z,34.30
2019-01-29T09:49:43.191Z,34.20
2019-01-29T09:52:09.165Z,34.30
2019-01-29T09:54:35.094Z,34.20
2019-01-29T09:57:01.031Z,34.30
2019-01-29T09:59:26.991Z,34.20
2019-01-29T10:01:52.945Z,34.40
2019-01-29T10:04:18.993Z,34.30
2019-01-29T10:06:44.949Z,34.20
2019-01-29T10:09:10.929Z,34.30
2019-01-29T10:11:36.994Z,34.20
2019-01-29T10:14:02.929Z,34.30
2019-01-29T10:16:28.885Z,34.40
2019-01-29T10:18:54.826Z,34.40
2019-01-29T10:21:20.790Z,34.50
2019-01-29T10:23:46.753Z,34.40
2019-01-29T10:26:12.731Z,34.40
2019-01-29T10:28:38.697Z,34.50
2019-01-29T10:31:04.629Z,34.40
2019-01-29T10:33:30.606Z,34.50
2019-01-29T10:35:56.658Z,34.50
2019-01-29T10:38:22.692Z,34.50
2019-01-29T10:40:48.653Z,34.50
2019-01-29T10:43:14.595Z,34.50
2019-01-29T10:45:40.532Z,34.50
2019-01-29T10:48:06.513Z,34.50
2019-01-29T10:50:32.546Z,34.40
2019-01-29T10:52:58.480Z,34.50
2019-01-29T10:55:24.422Z,34.50
2019-01-29T10:57:50.469Z,34.50
2019-01-29T11:00:16.429Z,34.40
2019-01-29T11:02:42.369Z,34.50
2019-01-29T11:05:08.323Z,34.60
2019-01-29T11:07:34.263Z,34.40
2019-01-29T11:10:00.376Z,34.50
2019-01-29T11:12:26.444Z,34.40
2019-01-29T11:14:52.420Z,34.40
2019-01-29T11:17:18.358Z,34.40
2019-01-29T11:19:44.514Z,34.40
2019-01-29T11:22:10.474Z,34.40
2019-01-29T11:24:36.422Z,34.40
2019-01-29T11:27:02.363Z,34.40
2019-01-29T11:29:28.308Z,34.30
2019-01-29T11:31:54.277Z,34.40
2019-01-29T11:34:20.453Z,34.30
2019-01-29T11:36:46.526Z,35.00
2019-01-29T11:39:12.472Z,34.30
2019-01-29T11:41:38.434Z,34.40
2019-01-29T11:44:04.500Z,34.30
2019-01-29T11:46:30.450Z,34.30
2019-01-29T11:48:56.425Z,34.30
2019-01-29T11:51:22.375Z,35.00
2019-01-29T11:53:48.323Z,34.40
2019-01-29T11:56:14.285Z,34.40
2019-01-29T11:58:40.213Z,34.30
2019-01-29T12:01:06.876Z,34.30
2019-01-29T12:03:32.810Z,34.30
2019-01-29T12:05:58.767Z,34.40
2019-01-29T12:08:24.736Z,34.40
2019-01-29T12:10:50.674Z,34.40
2019-01-29T12:13:16.610Z,34.30
2019-01-29T12:15:42.559Z,34.30
2019-01-29T12:18:08.509Z,34.30
2019-01-29T12:20:34.441Z,34.40
2019-01-29T12:23:00.385Z,34.30
2019-01-29T12:25:26.322Z,34.30
2019-01-29T12:27:52.292Z,35.00
2019-01-29T12:30:19.115Z,34.40
2019-01-29T12:32:45.131Z,34.40
2019-01-29T12:35:11.228Z,34.30
2019-01-29T12:37:37.162Z,34.40
2019-01-29T12:40:03.136Z,34.30
2019-01-29T12:42:29.068Z,34.30
2019-01-29T12:44:55.050Z,34.30
2019-01-29T12:47:21.098Z,34.30
2019-01-29T12:49:47.077Z,34.20
2019-01-29T12:52:14.936Z,35.10
2019-01-29T12:54:40.912Z,34.30
2019-01-29T12:57:06.891Z,34.20
2019-01-29T12:59:32.857Z,34.20
2019-01-29T13:01:58.806Z,34.20
2019-01-29T13:04:24.772Z,34.20
2019-01-29T13:06:50.806Z,34.20
2019-01-29T13:09:16.775Z,34.20
2019-01-29T13:11:42.831Z,34.10
2019-01-29T13:14:08.889Z,34.10
2019-01-29T13:16:34.847Z,34.10
2019-01-29T13:19:00.799Z,33.90
2019-01-29T13:21:26.763Z,33.90
2019-01-29T13:23:52.728Z,33.90
2019-01-29T13:26:18.732Z,33.90
2019-01-29T13:28:44.665Z,34.10
2019-01-29T13:31:10.624Z,33.90
2019-01-29T13:33:36.649Z,33.80
2019-01-29T13:36:02.595Z,33.90
2019-01-29T13:38:28.535Z,33.80
2019-01-29T13:40:54.497Z,33.90
2019-01-29T13:43:20.464Z,33.80
2019-01-29T13:45:47.436Z,33.80
2019-01-29T13:48:13.553Z,33.80
2019-01-29T13:50:39.502Z,33.80
2019-01-29T13:53:05.453Z,33.80
2019-01-29T13:55:31.454Z,33.70
2019-01-29T13:57:57.481Z,33.80
2019-01-29T14:00:23.454Z,33.70
2019-01-29T14:02:49.399Z,33.80
2019-01-29T14:05:15.384Z,33.70
2019-01-29T14:07:41.350Z,33.70
2019-01-29T14:10:07.327Z,33.80
2019-01-29T14:12:33.296Z,33.80
2019-01-29T14:14:59.641Z,33.70
2019-01-29T14:17:25.619Z,33.80
2019-01-29T14:19:51.577Z,33.80
2019-01-29T14:22:17.550Z,33.80
2019-01-29T14:24:43.629Z,33.80
2019-01-29T14:27:09.761Z,33.90
2019-01-29T14:29:35.716Z,33.90
2019-01-29T14:32:01.717Z,33.80
2019-01-29T14:34:27.749Z,33.90
2019-01-29T14:36:53.695Z,34.00
2019-01-29T14:39:19.661Z,34.00
2019-01-29T14:41:45.695Z,33.40
2019-01-29T14:44:11.660Z,33.90
2019-01-29T14:46:37.619Z,34.00
2019-01-29T14:49:03.667Z,33.90
2019-01-29T14:51:29.638Z,33.90
2019-01-29T14:53:55.682Z,33.90
2019-01-29T14:56:21.660Z,33.90
2019-01-29T14:58:47.605Z,34.00
2019-01-29T15:01:13.540Z,34.20
2019-01-29T15:03:39.608Z,34.40
2019-01-29T15:06:05.540Z,34.20
2019-01-29T15:08:31.600Z,34.40
2019-01-29T15:10:57.535Z,34.30
2019-01-29T15:13:23.495Z,34.30
2019-01-29T15:15:57.558Z,34.20
2019-01-29T15:18:28.400Z,34.20
2019-01-29T15:20:54.429Z,34.40
2019-01-29T15:23:20.378Z,34.00
2019-01-29T15:25:46.310Z,34.00
2019-01-29T15:28:12.293Z,33.90
2019-01-29T15:30:38.264Z,33.90
2019-01-29T15:33:04.209Z,34.00
2019-01-29T15:35:30.156Z,34.10
2019-01-29T15:37:56.098Z,34.10
2019-01-29T15:40:22.093Z,34.20
2019-01-29T15:42:48.054Z,34.00
2019-01-29T15:45:14.122Z,34.10
2019-01-29T15:47:40.076Z,34.10
2019-01-29T15:50:06.044Z,34.10
2019-01-29T15:52:32.001Z,34.00
2019-01-29T15:54:58.644Z,34.00
2019-01-29T15:57:24.684Z,34.00
2019-01-29T15:59:50.634Z,34.00
2019-01-29T16:02:16.597Z,34.00
2019-01-29T16:04:42.553Z,34.00
2019-01-29T16:07:08.510Z,34.10
2019-01-29T16:09:34.453Z,33.90
2019-01-29T16:12:00.411Z,33.80
2019-01-29T16:14:26.484Z,33.80
2019-01-29T16:16:52.445Z,33.60
2019-01-29T16:19:18.409Z,33.60
2019-01-29T16:21:44.375Z,33.60
2019-01-29T16:24:10.323Z,33.40
2019-01-29T16:26:36.315Z,33.20
2019-01-29T16:29:02.259Z,33.20
2019-01-29T16:31:28.214Z,33.00
2019-01-29T16:33:54.165Z,33.00
2019-01-29T16:36:20.120Z,33.00
2019-01-29T16:38:46.071Z,33.00
2019-01-29T16:41:12.025Z,32.80
2019-01-29T16:43:37.978Z,32.80
2019-01-29T16:46:03.916Z,33.60
2019-01-29T16:48:29.844Z,32.70
2019-01-29T16:50:55.792Z,32.70
2019-01-29T16:53:21.735Z,32.60
2019-01-29T16:55:47.684Z,32.50
2019-01-29T16:58:13.626Z,32.60
2019-01-29T17:00:39.582Z,32.50
2019-01-29T17:03:05.545Z,32.50
2019-01-29T17:05:31.514Z,32.40
2019-01-29T17:07:57.486Z,32.30
2019-01-29T17:10:23.466Z,32.30
2019-01-29T17:12:49.507Z,32.40
2019-01-29T17:15:15.482Z,32.50
2019-01-29T17:17:41.441Z,32.40
2019-01-29T17:20:07.503Z,32.60
2019-01-29T17:22:33.460Z,32.60
2019-01-29T17:24:59.422Z,32.70
2019-01-29T17:27:25.480Z,32.80
2019-01-29T17:29:51.442Z,33.40
2019-01-29T17:32:17.505Z,32.70
2019-01-29T17:34:43.439Z,32.80
2019-01-29T17:37:09.419Z,32.90
2019-01-29T17:39:35.359Z,33.00
2019-01-29T17:42:01.376Z,33.20
2019-01-29T17:44:27.438Z,33.00
2019-01-29T17:46:53.432Z,33.10
2019-01-29T17:49:19.592Z,33.10
2019-01-29T17:51:45.666Z,33.10
2019-01-29T17:54:12.436Z,32.90
2019-01-29T17:56:38.387Z,33.40
2019-01-29T17:59:04.347Z,32.90
2019-01-29T18:01:30.506Z,32.70
2019-01-29T18:03:56.456Z,32.80
2019-01-29T18:06:22.411Z,32.70
2019-01-29T18:08:49.948Z,32.80
2019-01-29T18:11:16.242Z,32.70
2019-01-29T18:13:42.191Z,32.60
2019-01-29T18:16:08.253Z,32.60
2019-01-29T18:18:34.609Z,32.50
2019-01-29T18:21:00.581Z,32.60
2019-01-29T18:23:26.635Z,32.60
2019-01-29T18:25:52.705Z,32.50
2019-01-29T18:28:18.750Z,32.40
2019-01-29T18:30:44.704Z,32.40
2019-01-29T18:33:10.653Z,32.60
2019-01-29T18:35:36.630Z,32.40
2019-01-29T18:38:02.661Z,32.40
2019-01-29T18:40:28.619Z,32.30
2019-01-29T18:42:54.581Z,32.30
2019-01-29T18:45:20.563Z,32.30
2019-01-29T18:47:46.593Z,32.20
2019-01-29T18:50:12.561Z,32.20
2019-01-29T18:52:38.510Z,32.20
2019-01-29T18:55:04.476Z,32.40
2019-01-29T18:57:30.568Z,32.40
2019-01-29T18:59:56.614Z,32.50
2019-01-29T19:02:22.707Z,32.60
2019-01-29T19:04:48.670Z,32.60
2019-01-29T19:07:14.641Z,32.50
2019-01-29T19:09:40.574Z,32.50
2019-01-29T19:12:06.564Z,32.50
2019-01-29T19:14:32.618Z,32.50
2019-01-29T19:16:58.563Z,32.50
2019-01-29T19:19:24.670Z,32.50
2019-01-29T19:21:50.645Z,32.40
2019-01-29T19:24:16.604Z,32.40
2019-01-29T19:26:42.677Z,32.50
2019-01-29T19:29:08.744Z,32.00
2019-01-29T19:31:34.804Z,33.10
2019-01-29T19:34:00.770Z,32.40
2019-01-29T19:36:26.727Z,32.30
2019-01-29T19:38:52.757Z,32.40
2019-01-29T19:41:18.734Z,32.50
2019-01-29T19:43:44.702Z,32.40
2019-01-29T19:46:10.759Z,32.50
2019-01-29T19:48:36.737Z,32.30
2019-01-29T19:51:02.801Z,32.40
2019-01-29T19:53:28.869Z,31.90
2019-01-29T19:55:54.913Z,31.70
2019-01-29T19:58:20.859Z,31.50
2019-01-29T20:00:46.799Z,31.40
2019-01-29T20:03:12.767Z,31.30
2019-01-29T20:05:38.725Z,31.40
2019-01-29T20:08:04.679Z,31.40
2019-01-29T20:10:30.649Z,31.60
2019-01-29T20:12:56.621Z,31.30
2019-01-29T20:15:22.701Z,31.40
2019-01-29T20:17:48.660Z,31.50
2019-01-29T20:20:14.626Z,31.70
2019-01-29T20:22:40.602Z,31.80
2019-01-29T20:25:06.571Z,31.90
2019-01-29T20:27:32.545Z,32.00
2019-01-29T20:29:58.523Z,32.00
2019-01-29T20:32:24.464Z,32.00
2019-01-29T20:34:50.422Z,32.00
2019-01-29T20:37:16.364Z,32.00
2019-01-29T20:39:42.329Z,32.00
2019-01-29T20:42:08.325Z,32.00
2019-01-29T20:44:34.419Z,32.00
2019-01-29T20:47:00.517Z,31.80
2019-01-29T20:49:26.580Z,32.00
2019-01-29T20:51:52.648Z,32.30
2019-01-29T20:54:19.023Z,31.80
2019-01-29T20:56:45.005Z,31.70
2019-01-29T20:59:11.061Z,31.70
2019-01-29T21:01:37.115Z,31.70
2019-01-29T21:04:03.187Z,31.50
2019-01-29T21:06:29.220Z,31.50
2019-01-29T21:08:55.202Z,31.50
2019-01-29T21:11:21.156Z,31.50
2019-01-29T21:13:47.134Z,31.70
2019-01-29T21:16:13.078Z,31.70
2019-01-29T21:18:39.042Z,31.80
2019-01-29T21:21:04.991Z,31.90
2019-01-29T21:23:30.972Z,32.00
2019-01-29T21:25:57.016Z,32.10
2019-01-29T21:28:23.014Z,32.10
2019-01-29T21:30:49.209Z,32.30
2019-01-29T21:33:15.453Z,32.20
2019-01-29T21:35:41.429Z,32.20
2019-01-29T21:38:07.468Z,32.10
2019-01-29T21:40:33.412Z,32.10
2019-01-29T21:42:59.360Z,32.80
2019-01-29T21:45:25.305Z,32.10
2019-01-29T21:47:51.252Z,32.10
2019-01-29T21:50:17.227Z,32.10
2019-01-29T21:52:43.197Z,32.20
2019-01-29T21:55:09.165Z,32.20
2019-01-29T21:57:35.212Z,32.30
2019-01-29T22:00:01.226Z,32.30
2019-01-29T22:02:27.274Z,32.20
2019-01-29T22:04:53.221Z,32.20
2019-01-29T22:07:19.159Z,32.20
2019-01-29T22:09:45.112Z,32.00
2019-01-29T22:12:11.085Z,32.10
2019-01-29T22:14:37.036Z,32.10
2019-01-29T22:17:02.995Z,32.00
2019-01-29T22:19:30.671Z,32.10
2019-01-29T22:21:56.821Z,32.20
2019-01-29T22:24:22.846Z,32.10
2019-01-29T22:26:48.821Z,32.20
2019-01-29T22:29:23.093Z,32.20
2019-01-29T22:31:42.668Z,32.20
2019-01-29T22:34:08.594Z,32.30
2019-01-29T22:36:34.561Z,32.20
2019-01-29T22:39:00.535Z,32.30
2019-01-29T22:41:26.489Z,32.30
2019-01-29T22:43:52.424Z,32.40
2019-01-29T22:46:19.229Z,32.40
2019-01-29T22:48:45.175Z,32.40
2019-01-29T22:51:11.411Z,32.40
2019-01-29T22:53:37.347Z,32.50
2019-01-29T22:56:03.297Z,32.50
2019-01-29T22:58:29.246Z,32.50
2019-01-29T23:00:56.613Z,32.50
2019-01-29T23:03:22.579Z,32.50
2019-01-29T23:05:48.551Z,32.50
2019-01-29T23:08:14.488Z,32.50
2019-01-29T23:10:40.451Z,32.50
2019-01-29T23:13:06.383Z,32.50
2019-01-29T23:15:32.335Z,32.60
2019-01-29T23:17:58.293Z,32.60
2019-01-29T23:20:24.254Z,32.60
2019-01-29T23:22:50.199Z,32.60
2019-01-29T23:25:16.158Z,32.60
2019-01-29T23:27:42.146Z,32.60
2019-01-29T23:30:08.091Z,32.50
2019-01-29T23:32:34.031Z,32.50
2019-01-29T23:34:59.991Z,32.60
2019-01-29T23:37:25.930Z,32.60
2019-01-29T23:39:51.895Z,33.20
2019-01-29T23:42:17.860Z,32.70
2019-01-29T23:44:43.807Z,32.60
2019-01-29T23:47:09.774Z,33.30
2019-01-29T23:49:35.809Z,32.70
2019-01-29T23:52:01.768Z,32.80
2019-01-29T23:54:27.725Z,32.80
2019-01-29T23:56:53.695Z,32.80
2019-01-29T23:59:19.633Z,32.90
